sensor_id;sensor_type;location;lat;lon;timestamp;P1;durP1;ratioP1;P2;durP2;ratioP2
47555;SDS011;33291;46.222;26.460;2023-08-20T00:01:23;6.18;;;3.67;;
47555;SDS011;33291;46.222;26.460;2023-08-20T00:03:51;8.05;;;4.55;;
47555;SDS011;33291;46.222;26.460;2023-08-20T00:06:17;6.63;;;4.40;;
47555;SDS011;33291;46.222;26.460;2023-08-20T00:08:43;4.95;;;4.30;;
47555;SDS011;33291;46.222;26.460;2023-08-20T00:11:09;6.60;;;4.38;;
47555;SDS011;33291;46.222;26.460;2023-08-20T00:13:37;16.75;;;4.60;;
47555;SDS011;33291;46.222;26.460;2023-08-20T00:16:02;7.70;;;4.35;;
47555;SDS011;33291;46.222;26.460;2023-08-20T00:18:28;5.90;;;4.30;;
47555;SDS011;33291;46.222;26.460;2023-08-20T00:20:54;6.88;;;4.63;;
47555;SDS011;33291;46.222;26.460;2023-08-20T00:23:20;7.88;;;4.18;;
47555;SDS011;33291;46.222;26.460;2023-08-20T00:25:46;9.75;;;4.28;;
47555;SDS011;33291;46.222;26.460;2023-08-20T00:28:12;12.55;;;4.35;;
47555;SDS011;33291;46.222;26.460;2023-08-20T00:30:38;9.20;;;4.90;;
47555;SDS011;33291;46.222;26.460;2023-08-20T00:33:04;7.03;;;4.25;;
47555;SDS011;33291;46.222;26.460;2023-08-20T00:35:30;6.32;;;3.53;;
47555;SDS011;33291;46.222;26.460;2023-08-20T00:37:55;7.00;;;3.97;;
47555;SDS011;33291;46.222;26.460;2023-08-20T00:40:21;5.57;;;4.30;;
47555;SDS011;33291;46.222;26.460;2023-08-20T00:42:46;7.88;;;4.45;;
47555;SDS011;33291;46.222;26.460;2023-08-20T00:45:12;6.93;;;4.13;;
47555;SDS011;33291;46.222;26.460;2023-08-20T00:47:37;17.73;;;4.32;;
47555;SDS011;33291;46.222;26.460;2023-08-20T00:50:03;4.97;;;4.35;;
47555;SDS011;33291;46.222;26.460;2023-08-20T00:52:33;6.18;;;3.88;;
47555;SDS011;33291;46.222;26.460;2023-08-20T00:54:59;6.80;;;3.92;;
47555;SDS011;33291;46.222;26.460;2023-08-20T00:57:25;9.73;;;4.70;;
47555;SDS011;33291;46.222;26.460;2023-08-20T00:59:51;7.25;;;4.45;;
47555;SDS011;33291;46.222;26.460;2023-08-20T01:02:20;8.45;;;4.78;;
47555;SDS011;33291;46.222;26.460;2023-08-20T01:04:46;5.50;;;4.55;;
47555;SDS011;33291;46.222;26.460;2023-08-20T01:12:26;7.15;;;5.22;;
47555;SDS011;33291;46.222;26.460;2023-08-20T01:14:51;8.82;;;4.20;;
47555;SDS011;33291;46.222;26.460;2023-08-20T01:17:17;7.22;;;4.50;;
47555;SDS011;33291;46.222;26.460;2023-08-20T01:19:42;4.97;;;4.43;;
47555;SDS011;33291;46.222;26.460;2023-08-20T01:29:58;6.07;;;4.35;;
47555;SDS011;33291;46.222;26.460;2023-08-20T01:32:24;4.25;;;3.75;;
47555;SDS011;33291;46.222;26.460;2023-08-20T01:34:51;5.93;;;3.92;;
47555;SDS011;33291;46.222;26.460;2023-08-20T01:37:17;7.90;;;4.45;;
47555;SDS011;33291;46.222;26.460;2023-08-20T01:39:43;8.60;;;4.80;;
47555;SDS011;33291;46.222;26.460;2023-08-20T01:42:08;7.47;;;4.90;;
47555;SDS011;33291;46.222;26.460;2023-08-20T01:44:34;5.97;;;4.00;;
47555;SDS011;33291;46.222;26.460;2023-08-20T01:46:59;8.13;;;4.82;;
47555;SDS011;33291;46.222;26.460;2023-08-20T01:49:25;5.63;;;4.05;;
47555;SDS011;33291;46.222;26.460;2023-08-20T01:51:50;8.45;;;4.70;;
47555;SDS011;33291;46.222;26.460;2023-08-20T01:54:16;6.10;;;4.30;;
47555;SDS011;33291;46.222;26.460;2023-08-20T01:56:42;7.82;;;4.82;;
47555;SDS011;33291;46.222;26.460;2023-08-20T01:59:07;8.98;;;4.10;;
47555;SDS011;33291;46.222;26.460;2023-08-20T02:01:33;6.57;;;4.70;;
47555;SDS011;33291;46.222;26.460;2023-08-20T02:03:59;8.07;;;4.22;;
47555;SDS011;33291;46.222;26.460;2023-08-20T02:06:24;5.07;;;4.15;;
47555;SDS011;33291;46.222;26.460;2023-08-20T02:08:50;7.07;;;4.30;;
47555;SDS011;33291;46.222;26.460;2023-08-20T02:11:15;6.85;;;4.28;;
47555;SDS011;33291;46.222;26.460;2023-08-20T02:13:41;7.68;;;4.47;;
47555;SDS011;33291;46.222;26.460;2023-08-20T02:16:06;9.02;;;4.63;;
47555;SDS011;33291;46.222;26.460;2023-08-20T02:18:32;5.45;;;4.63;;
47555;SDS011;33291;46.222;26.460;2023-08-20T02:20:57;7.15;;;4.57;;
47555;SDS011;33291;46.222;26.460;2023-08-20T02:23:23;7.70;;;4.68;;
47555;SDS011;33291;46.222;26.460;2023-08-20T02:25:49;4.53;;;4.10;;
47555;SDS011;33291;46.222;26.460;2023-08-20T02:28:14;4.85;;;4.15;;
47555;SDS011;33291;46.222;26.460;2023-08-20T02:30:41;6.72;;;3.92;;
47555;SDS011;33291;46.222;26.460;2023-08-20T02:33:10;5.72;;;4.28;;
47555;SDS011;33291;46.222;26.460;2023-08-20T02:35:38;7.05;;;4.65;;
47555;SDS011;33291;46.222;26.460;2023-08-20T02:38:05;8.80;;;4.53;;
47555;SDS011;33291;46.222;26.460;2023-08-20T02:40:31;4.78;;;4.25;;
47555;SDS011;33291;46.222;26.460;2023-08-20T02:42:57;6.80;;;4.10;;
47555;SDS011;33291;46.222;26.460;2023-08-20T02:45:22;10.27;;;4.70;;
47555;SDS011;33291;46.222;26.460;2023-08-20T02:47:48;7.57;;;4.30;;
47555;SDS011;33291;46.222;26.460;2023-08-20T02:50:14;7.60;;;3.97;;
47555;SDS011;33291;46.222;26.460;2023-08-20T02:52:41;5.35;;;4.13;;
47555;SDS011;33291;46.222;26.460;2023-08-20T02:55:07;4.43;;;4.03;;
47555;SDS011;33291;46.222;26.460;2023-08-20T02:57:33;5.00;;;4.50;;
47555;SDS011;33291;46.222;26.460;2023-08-20T02:59:58;7.78;;;3.92;;
47555;SDS011;33291;46.222;26.460;2023-08-20T03:02:24;4.55;;;4.05;;
47555;SDS011;33291;46.222;26.460;2023-08-20T03:04:49;5.05;;;4.13;;
47555;SDS011;33291;46.222;26.460;2023-08-20T03:07:15;10.23;;;4.70;;
47555;SDS011;33291;46.222;26.460;2023-08-20T03:09:40;26.10;;;5.53;;
47555;SDS011;33291;46.222;26.460;2023-08-20T03:12:06;11.18;;;3.95;;
47555;SDS011;33291;46.222;26.460;2023-08-20T03:14:32;6.93;;;4.25;;
47555;SDS011;33291;46.222;26.460;2023-08-20T03:16:57;9.00;;;4.75;;
47555;SDS011;33291;46.222;26.460;2023-08-20T03:19:23;4.30;;;3.88;;
47555;SDS011;33291;46.222;26.460;2023-08-20T03:21:48;8.40;;;4.60;;
47555;SDS011;33291;46.222;26.460;2023-08-20T03:24:14;9.40;;;4.13;;
47555;SDS011;33291;46.222;26.460;2023-08-20T03:26:39;7.00;;;4.72;;
47555;SDS011;33291;46.222;26.460;2023-08-20T03:29:05;9.48;;;4.68;;
47555;SDS011;33291;46.222;26.460;2023-08-20T03:31:31;7.55;;;4.75;;
47555;SDS011;33291;46.222;26.460;2023-08-20T03:33:56;7.07;;;4.05;;
47555;SDS011;33291;46.222;26.460;2023-08-20T03:36:22;5.70;;;4.22;;
47555;SDS011;33291;46.222;26.460;2023-08-20T03:38:47;10.65;;;4.57;;
47555;SDS011;33291;46.222;26.460;2023-08-20T03:41:13;5.28;;;4.28;;
47555;SDS011;33291;46.222;26.460;2023-08-20T03:43:39;8.60;;;5.07;;
47555;SDS011;33291;46.222;26.460;2023-08-20T03:46:04;9.20;;;4.90;;
47555;SDS011;33291;46.222;26.460;2023-08-20T03:48:30;9.73;;;4.68;;
47555;SDS011;33291;46.222;26.460;2023-08-20T03:50:55;5.85;;;4.15;;
47555;SDS011;33291;46.222;26.460;2023-08-20T03:53:21;9.88;;;4.68;;
47555;SDS011;33291;46.222;26.460;2023-08-20T03:55:49;5.13;;;4.63;;
47555;SDS011;33291;46.222;26.460;2023-08-20T03:58:15;4.80;;;4.40;;
47555;SDS011;33291;46.222;26.460;2023-08-20T04:00:41;4.70;;;4.10;;
47555;SDS011;33291;46.222;26.460;2023-08-20T04:03:07;8.35;;;4.22;;
47555;SDS011;33291;46.222;26.460;2023-08-20T04:05:36;7.07;;;4.15;;
47555;SDS011;33291;46.222;26.460;2023-08-20T04:08:03;7.07;;;4.25;;
47555;SDS011;33291;46.222;26.460;2023-08-20T04:10:29;4.68;;;3.90;;
47555;SDS011;33291;46.222;26.460;2023-08-20T04:12:54;7.10;;;3.65;;
47555;SDS011;33291;46.222;26.460;2023-08-20T04:15:20;5.00;;;4.05;;
47555;SDS011;33291;46.222;26.460;2023-08-20T04:17:45;5.72;;;4.43;;
47555;SDS011;33291;46.222;26.460;2023-08-20T04:20:11;6.22;;;4.03;;
47555;SDS011;33291;46.222;26.460;2023-08-20T04:22:37;5.47;;;3.85;;
47555;SDS011;33291;46.222;26.460;2023-08-20T04:25:03;5.60;;;4.25;;
47555;SDS011;33291;46.222;26.460;2023-08-20T04:27:29;6.82;;;4.85;;
47555;SDS011;33291;46.222;26.460;2023-08-20T04:29:54;4.95;;;4.45;;
47555;SDS011;33291;46.222;26.460;2023-08-20T04:32:21;5.22;;;4.38;;
47555;SDS011;33291;46.222;26.460;2023-08-20T04:34:46;6.13;;;4.40;;
47555;SDS011;33291;46.222;26.460;2023-08-20T04:37:14;4.93;;;4.45;;
47555;SDS011;33291;46.222;26.460;2023-08-20T04:39:39;5.88;;;4.38;;
47555;SDS011;33291;46.222;26.460;2023-08-20T04:42:05;4.70;;;4.00;;
47555;SDS011;33291;46.222;26.460;2023-08-20T04:44:31;8.07;;;3.78;;
47555;SDS011;33291;46.222;26.460;2023-08-20T04:46:56;6.97;;;4.47;;
47555;SDS011;33291;46.222;26.460;2023-08-20T04:49:21;7.60;;;4.65;;
47555;SDS011;33291;46.222;26.460;2023-08-20T04:51:47;9.23;;;4.55;;
47555;SDS011;33291;46.222;26.460;2023-08-20T04:54:14;6.70;;;4.45;;
47555;SDS011;33291;46.222;26.460;2023-08-20T04:56:39;4.63;;;3.80;;
47555;SDS011;33291;46.222;26.460;2023-08-20T04:59:05;9.23;;;4.07;;
47555;SDS011;33291;46.222;26.460;2023-08-20T05:01:30;4.78;;;4.03;;
47555;SDS011;33291;46.222;26.460;2023-08-20T05:03:56;5.22;;;4.07;;
47555;SDS011;33291;46.222;26.460;2023-08-20T05:06:21;7.60;;;4.25;;
47555;SDS011;33291;46.222;26.460;2023-08-20T05:08:46;10.57;;;4.53;;
47555;SDS011;33291;46.222;26.460;2023-08-20T05:11:12;5.80;;;4.10;;
47555;SDS011;33291;46.222;26.460;2023-08-20T05:13:37;7.47;;;4.50;;
47555;SDS011;33291;46.222;26.460;2023-08-20T05:16:03;4.63;;;4.15;;
47555;SDS011;33291;46.222;26.460;2023-08-20T05:18:28;5.60;;;4.13;;
47555;SDS011;33291;46.222;26.460;2023-08-20T05:20:54;7.25;;;4.65;;
47555;SDS011;33291;46.222;26.460;2023-08-20T05:23:19;5.93;;;4.93;;
47555;SDS011;33291;46.222;26.460;2023-08-20T05:25:45;7.35;;;5.38;;
47555;SDS011;33291;46.222;26.460;2023-08-20T05:28:10;6.30;;;4.25;;
47555;SDS011;33291;46.222;26.460;2023-08-20T05:30:36;6.25;;;4.18;;
47555;SDS011;33291;46.222;26.460;2023-08-20T05:33:01;7.03;;;4.45;;
47555;SDS011;33291;46.222;26.460;2023-08-20T05:35:27;8.30;;;4.18;;
47555;SDS011;33291;46.222;26.460;2023-08-20T05:37:53;7.10;;;4.50;;
47555;SDS011;33291;46.222;26.460;2023-08-20T05:40:18;12.57;;;4.10;;
47555;SDS011;33291;46.222;26.460;2023-08-20T05:42:45;6.65;;;4.32;;
47555;SDS011;33291;46.222;26.460;2023-08-20T05:45:11;12.43;;;4.53;;
47555;SDS011;33291;46.222;26.460;2023-08-20T05:47:36;7.82;;;3.67;;
47555;SDS011;33291;46.222;26.460;2023-08-20T05:50:02;5.40;;;4.18;;
47555;SDS011;33291;46.222;26.460;2023-08-20T05:52:27;7.05;;;4.28;;
47555;SDS011;33291;46.222;26.460;2023-08-20T05:54:53;8.77;;;4.88;;
47555;SDS011;33291;46.222;26.460;2023-08-20T05:57:18;6.45;;;3.88;;
47555;SDS011;33291;46.222;26.460;2023-08-20T05:59:44;6.85;;;4.10;;
47555;SDS011;33291;46.222;26.460;2023-08-20T06:02:10;5.45;;;4.15;;
47555;SDS011;33291;46.222;26.460;2023-08-20T06:04:35;5.25;;;4.07;;
47555;SDS011;33291;46.222;26.460;2023-08-20T06:07:01;6.40;;;4.20;;
47555;SDS011;33291;46.222;26.460;2023-08-20T06:09:26;5.70;;;3.83;;
47555;SDS011;33291;46.222;26.460;2023-08-20T06:11:52;5.72;;;4.05;;
47555;SDS011;33291;46.222;26.460;2023-08-20T06:14:17;4.43;;;3.83;;
47555;SDS011;33291;46.222;26.460;2023-08-20T06:16:42;5.00;;;4.00;;
47555;SDS011;33291;46.222;26.460;2023-08-20T06:19:09;4.65;;;4.15;;
47555;SDS011;33291;46.222;26.460;2023-08-20T06:21:34;5.07;;;4.10;;
47555;SDS011;33291;46.222;26.460;2023-08-20T06:24:00;8.77;;;4.32;;
47555;SDS011;33291;46.222;26.460;2023-08-20T06:26:26;4.40;;;3.97;;
47555;SDS011;33291;46.222;26.460;2023-08-20T06:28:51;6.47;;;4.18;;
47555;SDS011;33291;46.222;26.460;2023-08-20T06:31:17;5.95;;;3.78;;
47555;SDS011;33291;46.222;26.460;2023-08-20T06:33:42;5.43;;;4.30;;
47555;SDS011;33291;46.222;26.460;2023-08-20T06:36:08;6.32;;;4.07;;
47555;SDS011;33291;46.222;26.460;2023-08-20T06:38:33;7.40;;;4.55;;
47555;SDS011;33291;46.222;26.460;2023-08-20T06:40:59;5.03;;;4.13;;
47555;SDS011;33291;46.222;26.460;2023-08-20T06:43:24;16.08;;;4.47;;
47555;SDS011;33291;46.222;26.460;2023-08-20T06:45:50;9.07;;;4.35;;
47555;SDS011;33291;46.222;26.460;2023-08-20T06:48:15;5.47;;;4.20;;
47555;SDS011;33291;46.222;26.460;2023-08-20T06:50:41;5.78;;;4.47;;
47555;SDS011;33291;46.222;26.460;2023-08-20T06:53:07;6.68;;;4.15;;
47555;SDS011;33291;46.222;26.460;2023-08-20T06:55:32;6.90;;;4.10;;
47555;SDS011;33291;46.222;26.460;2023-08-20T06:57:58;7.70;;;4.60;;
47555;SDS011;33291;46.222;26.460;2023-08-20T07:00:23;7.22;;;4.10;;
47555;SDS011;33291;46.222;26.460;2023-08-20T07:02:49;6.78;;;4.00;;
47555;SDS011;33291;46.222;26.460;2023-08-20T07:05:14;5.95;;;4.20;;
47555;SDS011;33291;46.222;26.460;2023-08-20T07:07:40;9.05;;;4.38;;
47555;SDS011;33291;46.222;26.460;2023-08-20T07:10:05;5.93;;;3.65;;
47555;SDS011;33291;46.222;26.460;2023-08-20T07:12:31;7.47;;;3.53;;
47555;SDS011;33291;46.222;26.460;2023-08-20T07:14:56;7.10;;;3.72;;
47555;SDS011;33291;46.222;26.460;2023-08-20T07:17:22;8.63;;;3.88;;
47555;SDS011;33291;46.222;26.460;2023-08-20T07:19:47;7.13;;;4.00;;
47555;SDS011;33291;46.222;26.460;2023-08-20T07:22:13;8.70;;;3.90;;
47555;SDS011;33291;46.222;26.460;2023-08-20T07:24:38;7.15;;;3.63;;
47555;SDS011;33291;46.222;26.460;2023-08-20T07:27:04;7.40;;;3.67;;
47555;SDS011;33291;46.222;26.460;2023-08-20T07:29:35;7.30;;;3.97;;
47555;SDS011;33291;46.222;26.460;2023-08-20T07:32:01;6.95;;;3.47;;
47555;SDS011;33291;46.222;26.460;2023-08-20T07:34:28;7.57;;;3.60;;
47555;SDS011;33291;46.222;26.460;2023-08-20T07:36:55;6.00;;;4.03;;
47555;SDS011;33291;46.222;26.460;2023-08-20T07:39:21;5.57;;;3.70;;
47555;SDS011;33291;46.222;26.460;2023-08-20T07:41:47;7.85;;;3.88;;
47555;SDS011;33291;46.222;26.460;2023-08-20T07:44:12;7.07;;;4.38;;
47555;SDS011;33291;46.222;26.460;2023-08-20T07:46:38;7.18;;;4.13;;
47555;SDS011;33291;46.222;26.460;2023-08-20T07:49:04;5.75;;;4.03;;
47555;SDS011;33291;46.222;26.460;2023-08-20T07:51:30;12.00;;;3.78;;
47555;SDS011;33291;46.222;26.460;2023-08-20T07:53:55;4.20;;;3.55;;
47555;SDS011;33291;46.222;26.460;2023-08-20T07:56:23;7.53;;;4.18;;
47555;SDS011;33291;46.222;26.460;2023-08-20T07:58:48;7.68;;;3.47;;
47555;SDS011;33291;46.222;26.460;2023-08-20T08:01:14;9.30;;;4.43;;
47555;SDS011;33291;46.222;26.460;2023-08-20T08:03:40;12.65;;;5.25;;
47555;SDS011;33291;46.222;26.460;2023-08-20T08:06:05;7.55;;;4.10;;
47555;SDS011;33291;46.222;26.460;2023-08-20T08:08:31;6.90;;;3.42;;
47555;SDS011;33291;46.222;26.460;2023-08-20T08:10:56;5.97;;;4.10;;
47555;SDS011;33291;46.222;26.460;2023-08-20T08:13:22;6.07;;;3.92;;
47555;SDS011;33291;46.222;26.460;2023-08-20T08:15:48;9.45;;;4.20;;
47555;SDS011;33291;46.222;26.460;2023-08-20T08:18:14;8.43;;;3.92;;
47555;SDS011;33291;46.222;26.460;2023-08-20T08:20:40;10.18;;;5.00;;
47555;SDS011;33291;46.222;26.460;2023-08-20T08:23:06;6.07;;;4.32;;
47555;SDS011;33291;46.222;26.460;2023-08-20T08:25:31;10.98;;;4.70;;
47555;SDS011;33291;46.222;26.460;2023-08-20T08:27:57;11.00;;;3.80;;
47555;SDS011;33291;46.222;26.460;2023-08-20T08:30:23;8.07;;;4.00;;
47555;SDS011;33291;46.222;26.460;2023-08-20T08:32:49;3.90;;;3.30;;
47555;SDS011;33291;46.222;26.460;2023-08-20T08:35:14;8.15;;;3.75;;
47555;SDS011;33291;46.222;26.460;2023-08-20T08:37:40;8.07;;;4.38;;
47555;SDS011;33291;46.222;26.460;2023-08-20T08:40:05;5.28;;;3.58;;
47555;SDS011;33291;46.222;26.460;2023-08-20T08:42:32;9.50;;;3.85;;
47555;SDS011;33291;46.222;26.460;2023-08-20T08:44:59;10.98;;;4.70;;
47555;SDS011;33291;46.222;26.460;2023-08-20T08:47:25;9.40;;;4.30;;
47555;SDS011;33291;46.222;26.460;2023-08-20T08:49:51;4.60;;;4.15;;
47555;SDS011;33291;46.222;26.460;2023-08-20T08:52:19;7.55;;;4.22;;
47555;SDS011;33291;46.222;26.460;2023-08-20T08:54:47;9.13;;;2.85;;
47555;SDS011;33291;46.222;26.460;2023-08-20T08:57:13;9.13;;;3.88;;
47555;SDS011;33291;46.222;26.460;2023-08-20T08:59:39;11.95;;;4.32;;
47555;SDS011;33291;46.222;26.460;2023-08-20T09:02:09;5.50;;;3.95;;
47555;SDS011;33291;46.222;26.460;2023-08-20T09:04:38;4.45;;;3.40;;
47555;SDS011;33291;46.222;26.460;2023-08-20T09:07:05;8.23;;;3.60;;
47555;SDS011;33291;46.222;26.460;2023-08-20T09:09:35;3.80;;;3.50;;
47555;SDS011;33291;46.222;26.460;2023-08-20T09:12:02;7.32;;;3.90;;
47555;SDS011;33291;46.222;26.460;2023-08-20T09:14:37;6.38;;;3.47;;
47555;SDS011;33291;46.222;26.460;2023-08-20T09:17:03;4.32;;;3.53;;
47555;SDS011;33291;46.222;26.460;2023-08-20T09:19:29;5.45;;;3.60;;
47555;SDS011;33291;46.222;26.460;2023-08-20T09:22:00;5.22;;;3.55;;
47555;SDS011;33291;46.222;26.460;2023-08-20T09:24:39;8.13;;;3.55;;
47555;SDS011;33291;46.222;26.460;2023-08-20T09:27:09;8.80;;;3.75;;
47555;SDS011;33291;46.222;26.460;2023-08-20T09:32:17;9.43;;;3.22;;
47555;SDS011;33291;46.222;26.460;2023-08-20T09:34:50;7.80;;;4.13;;
47555;SDS011;33291;46.222;26.460;2023-08-20T09:37:20;5.40;;;3.92;;
47555;SDS011;33291;46.222;26.460;2023-08-20T09:39:47;7.55;;;4.30;;
47555;SDS011;33291;46.222;26.460;2023-08-20T09:42:13;6.65;;;4.15;;
47555;SDS011;33291;46.222;26.460;2023-08-20T09:44:40;13.50;;;3.90;;
47555;SDS011;33291;46.222;26.460;2023-08-20T09:47:08;6.97;;;4.10;;
47555;SDS011;33291;46.222;26.460;2023-08-20T09:49:41;7.63;;;4.20;;
47555;SDS011;33291;46.222;26.460;2023-08-20T09:52:08;7.72;;;4.00;;
47555;SDS011;33291;46.222;26.460;2023-08-20T09:57:16;6.47;;;4.00;;
47555;SDS011;33291;46.222;26.460;2023-08-20T09:59:50;6.57;;;4.03;;
47555;SDS011;33291;46.222;26.460;2023-08-20T10:02:17;6.30;;;3.33;;
47555;SDS011;33291;46.222;26.460;2023-08-20T10:04:44;3.80;;;3.50;;
47555;SDS011;33291;46.222;26.460;2023-08-20T10:07:10;7.75;;;3.22;;
47555;SDS011;33291;46.222;26.460;2023-08-20T10:09:38;7.28;;;3.65;;
47555;SDS011;33291;46.222;26.460;2023-08-20T10:12:05;5.63;;;3.95;;
47555;SDS011;33291;46.222;26.460;2023-08-20T10:14:31;11.50;;;4.03;;
47555;SDS011;33291;46.222;26.460;2023-08-20T10:16:57;4.13;;;3.22;;
47555;SDS011;33291;46.222;26.460;2023-08-20T10:19:23;6.57;;;4.03;;
47555;SDS011;33291;46.222;26.460;2023-08-20T10:21:52;6.75;;;3.47;;
47555;SDS011;33291;46.222;26.460;2023-08-20T10:24:18;11.60;;;3.38;;
47555;SDS011;33291;46.222;26.460;2023-08-20T10:26:47;5.15;;;3.60;;
47555;SDS011;33291;46.222;26.460;2023-08-20T10:32:05;5.18;;;3.40;;
47555;SDS011;33291;46.222;26.460;2023-08-20T10:34:32;6.80;;;3.67;;
47555;SDS011;33291;46.222;26.460;2023-08-20T10:37:01;8.18;;;3.30;;
47555;SDS011;33291;46.222;26.460;2023-08-20T10:39:28;4.40;;;3.55;;
47555;SDS011;33291;46.222;26.460;2023-08-20T10:47:47;9.43;;;4.05;;
47555;SDS011;33291;46.222;26.460;2023-08-20T10:50:16;8.90;;;3.80;;
47555;SDS011;33291;46.222;26.460;2023-08-20T10:52:50;5.95;;;3.45;;
47555;SDS011;33291;46.222;26.460;2023-08-20T10:55:23;6.43;;;3.20;;
47555;SDS011;33291;46.222;26.460;2023-08-20T10:57:55;5.50;;;3.55;;
47555;SDS011;33291;46.222;26.460;2023-08-20T11:00:27;6.07;;;3.53;;
47555;SDS011;33291;46.222;26.460;2023-08-20T11:02:53;8.20;;;3.70;;
47555;SDS011;33291;46.222;26.460;2023-08-20T11:05:20;6.28;;;3.13;;
47555;SDS011;33291;46.222;26.460;2023-08-20T11:07:49;8.00;;;3.53;;
47555;SDS011;33291;46.222;26.460;2023-08-20T11:10:15;7.50;;;4.00;;
47555;SDS011;33291;46.222;26.460;2023-08-20T11:12:50;4.57;;;3.10;;
47555;SDS011;33291;46.222;26.460;2023-08-20T11:15:16;5.88;;;3.70;;
47555;SDS011;33291;46.222;26.460;2023-08-20T11:17:45;6.93;;;3.47;;
47555;SDS011;33291;46.222;26.460;2023-08-20T11:20:11;5.38;;;3.25;;
47555;SDS011;33291;46.222;26.460;2023-08-20T11:22:39;7.80;;;3.83;;
47555;SDS011;33291;46.222;26.460;2023-08-20T11:25:06;5.70;;;3.55;;
47555;SDS011;33291;46.222;26.460;2023-08-20T11:27:36;5.53;;;3.42;;
47555;SDS011;33291;46.222;26.460;2023-08-20T11:30:05;5.90;;;3.67;;
47555;SDS011;33291;46.222;26.460;2023-08-20T11:32:30;4.72;;;3.47;;
47555;SDS011;33291;46.222;26.460;2023-08-20T11:34:56;7.57;;;3.65;;
47555;SDS011;33291;46.222;26.460;2023-08-20T11:37:22;6.70;;;3.70;;
47555;SDS011;33291;46.222;26.460;2023-08-20T11:39:48;5.30;;;3.15;;
47555;SDS011;33291;46.222;26.460;2023-08-20T11:42:14;6.50;;;3.60;;
47555;SDS011;33291;46.222;26.460;2023-08-20T11:44:44;3.65;;;3.20;;
47555;SDS011;33291;46.222;26.460;2023-08-20T11:47:15;7.30;;;3.15;;
47555;SDS011;33291;46.222;26.460;2023-08-20T11:49:42;6.18;;;3.67;;
47555;SDS011;33291;46.222;26.460;2023-08-20T11:52:07;5.30;;;3.22;;
47555;SDS011;33291;46.222;26.460;2023-08-20T11:54:34;7.43;;;3.22;;
47555;SDS011;33291;46.222;26.460;2023-08-20T11:57:03;6.05;;;3.20;;
47555;SDS011;33291;46.222;26.460;2023-08-20T11:59:30;9.18;;;3.35;;
47555;SDS011;33291;46.222;26.460;2023-08-20T12:01:57;3.78;;;3.00;;
47555;SDS011;33291;46.222;26.460;2023-08-20T12:04:25;7.05;;;4.03;;
47555;SDS011;33291;46.222;26.460;2023-08-20T12:07:02;5.07;;;3.50;;
47555;SDS011;33291;46.222;26.460;2023-08-20T12:09:28;7.68;;;3.30;;
47555;SDS011;33291;46.222;26.460;2023-08-20T12:11:54;11.70;;;3.63;;
47555;SDS011;33291;46.222;26.460;2023-08-20T12:14:23;7.43;;;3.40;;
47555;SDS011;33291;46.222;26.460;2023-08-20T12:16:49;7.47;;;3.60;;
47555;SDS011;33291;46.222;26.460;2023-08-20T12:19:18;5.72;;;3.53;;
47555;SDS011;33291;46.222;26.460;2023-08-20T12:21:43;7.35;;;3.47;;
47555;SDS011;33291;46.222;26.460;2023-08-20T12:24:09;5.85;;;3.30;;
47555;SDS011;33291;46.222;26.460;2023-08-20T12:26:36;6.07;;;3.47;;
47555;SDS011;33291;46.222;26.460;2023-08-20T12:29:02;9.27;;;3.58;;
47555;SDS011;33291;46.222;26.460;2023-08-20T12:31:28;10.60;;;3.65;;
47555;SDS011;33291;46.222;26.460;2023-08-20T12:33:53;7.97;;;3.55;;
47555;SDS011;33291;46.222;26.460;2023-08-20T12:36:18;8.23;;;3.67;;
47555;SDS011;33291;46.222;26.460;2023-08-20T12:38:44;7.13;;;3.42;;
47555;SDS011;33291;46.222;26.460;2023-08-20T12:41:09;4.85;;;3.42;;
47555;SDS011;33291;46.222;26.460;2023-08-20T12:43:35;3.58;;;3.03;;
47555;SDS011;33291;46.222;26.460;2023-08-20T12:46:01;7.43;;;3.45;;
47555;SDS011;33291;46.222;26.460;2023-08-20T12:48:26;6.07;;;3.75;;
47555;SDS011;33291;46.222;26.460;2023-08-20T12:50:51;7.03;;;3.63;;
47555;SDS011;33291;46.222;26.460;2023-08-20T12:53:17;4.38;;;3.28;;
47555;SDS011;33291;46.222;26.460;2023-08-20T12:55:42;7.20;;;3.42;;
47555;SDS011;33291;46.222;26.460;2023-08-20T12:58:08;4.20;;;3.42;;
47555;SDS011;33291;46.222;26.460;2023-08-20T13:00:33;5.45;;;3.58;;
47555;SDS011;33291;46.222;26.460;2023-08-20T13:02:59;4.30;;;3.20;;
47555;SDS011;33291;46.222;26.460;2023-08-20T13:05:25;4.00;;;3.25;;
47555;SDS011;33291;46.222;26.460;2023-08-20T13:07:51;6.78;;;3.22;;
47555;SDS011;33291;46.222;26.460;2023-08-20T13:10:18;10.50;;;3.70;;
47555;SDS011;33291;46.222;26.460;2023-08-20T13:12:51;4.72;;;3.80;;
47555;SDS011;33291;46.222;26.460;2023-08-20T13:15:19;6.00;;;3.22;;
47555;SDS011;33291;46.222;26.460;2023-08-20T13:17:47;6.63;;;3.72;;
47555;SDS011;33291;46.222;26.460;2023-08-20T13:20:14;9.20;;;4.10;;
47555;SDS011;33291;46.222;26.460;2023-08-20T13:22:40;10.50;;;3.58;;
47555;SDS011;33291;46.222;26.460;2023-08-20T13:25:06;3.97;;;3.25;;
47555;SDS011;33291;46.222;26.460;2023-08-20T13:27:32;3.95;;;3.33;;
47555;SDS011;33291;46.222;26.460;2023-08-20T13:29:58;5.35;;;3.60;;
47555;SDS011;33291;46.222;26.460;2023-08-20T13:32:23;6.38;;;4.00;;
47555;SDS011;33291;46.222;26.460;2023-08-20T13:34:49;4.63;;;3.67;;
47555;SDS011;33291;46.222;26.460;2023-08-20T13:37:15;3.60;;;3.22;;
47555;SDS011;33291;46.222;26.460;2023-08-20T13:39:41;5.38;;;3.72;;
47555;SDS011;33291;46.222;26.460;2023-08-20T13:42:06;7.28;;;3.65;;
47555;SDS011;33291;46.222;26.460;2023-08-20T13:44:32;4.95;;;3.25;;
47555;SDS011;33291;46.222;26.460;2023-08-20T13:46:57;7.07;;;4.05;;
47555;SDS011;33291;46.222;26.460;2023-08-20T13:49:23;5.18;;;3.33;;
47555;SDS011;33291;46.222;26.460;2023-08-20T13:51:49;7.22;;;3.50;;
47555;SDS011;33291;46.222;26.460;2023-08-20T13:54:14;6.80;;;3.22;;
47555;SDS011;33291;46.222;26.460;2023-08-20T13:56:40;6.40;;;3.40;;
47555;SDS011;33291;46.222;26.460;2023-08-20T13:59:06;9.98;;;3.33;;
47555;SDS011;33291;46.222;26.460;2023-08-20T14:01:31;7.90;;;3.75;;
47555;SDS011;33291;46.222;26.460;2023-08-20T14:03:56;8.18;;;3.22;;
47555;SDS011;33291;46.222;26.460;2023-08-20T14:06:22;6.05;;;4.13;;
47555;SDS011;33291;46.222;26.460;2023-08-20T14:08:47;5.18;;;3.63;;
47555;SDS011;33291;46.222;26.460;2023-08-20T14:11:13;7.68;;;3.20;;
47555;SDS011;33291;46.222;26.460;2023-08-20T14:13:39;6.53;;;3.40;;
47555;SDS011;33291;46.222;26.460;2023-08-20T14:16:05;3.30;;;2.92;;
47555;SDS011;33291;46.222;26.460;2023-08-20T14:18:30;7.07;;;3.35;;
47555;SDS011;33291;46.222;26.460;2023-08-20T14:20:56;4.15;;;3.42;;
47555;SDS011;33291;46.222;26.460;2023-08-20T14:23:21;7.32;;;3.55;;
47555;SDS011;33291;46.222;26.460;2023-08-20T14:25:47;7.85;;;3.90;;
47555;SDS011;33291;46.222;26.460;2023-08-20T14:28:12;8.45;;;3.53;;
47555;SDS011;33291;46.222;26.460;2023-08-20T14:30:38;6.45;;;3.20;;
47555;SDS011;33291;46.222;26.460;2023-08-20T14:33:04;4.63;;;3.42;;
47555;SDS011;33291;46.222;26.460;2023-08-20T14:35:30;6.80;;;2.95;;
47555;SDS011;33291;46.222;26.460;2023-08-20T14:37:56;5.63;;;3.35;;
47555;SDS011;33291;46.222;26.460;2023-08-20T14:40:22;10.80;;;3.40;;
47555;SDS011;33291;46.222;26.460;2023-08-20T14:42:48;6.05;;;3.15;;
47555;SDS011;33291;46.222;26.460;2023-08-20T14:45:14;6.10;;;3.25;;
47555;SDS011;33291;46.222;26.460;2023-08-20T14:47:40;4.28;;;2.97;;
47555;SDS011;33291;46.222;26.460;2023-08-20T14:50:05;3.88;;;3.00;;
47555;SDS011;33291;46.222;26.460;2023-08-20T14:52:31;10.82;;;3.83;;
47555;SDS011;33291;46.222;26.460;2023-08-20T14:54:57;6.03;;;3.42;;